Time;durP1;ratioP1;P1;durP2;ratioP2;P2;SDS_P1;SDS_P2;PMS_P1;PMS_P2;Temp;Humidity;BMP_temperature;BMP_pressure;BME280_temperature;BME280_humidity;BME280_pressure;Samples;Min_cycle;Max_cycle;Signal;HPM_P1;HPM_P2
2021/12/09 00:01:23;;;;;;;15.83;9.00;;;;;;;6.21;94.21;96757.63;5045509;28;20671;-85
2021/12/09 00:03:53;;;;;;;14.37;9.17;;;;;;;6.21;94.12;96762.81;5042934;28;20647;-85
2021/12/09 00:06:27;;;;;;;13.40;8.00;;;;;;;6.22;94.24;96752.34;5059312;28;20667;-85
2021/12/09 00:08:59;;;;;;;11.70;7.97;;;;;;;6.22;95.07;96757.50;5042684;28;20625;-85
2021/12/09 00:11:29;;;;;;;11.37;7.37;;;;;;;6.24;94.67;96759.97;5045319;28;20636;-85
2021/12/09 00:13:57;;;;;;;10.77;8.37;;;;;;;6.24;94.12;96760.81;5090434;28;20628;-85
2021/12/09 00:16:27;;;;;;;12.70;7.97;;;;;;;6.23;94.57;96764.31;5041908;28;20648;-85
2021/12/09 00:18:55;;;;;;;13.57;7.47;;;;;;;6.23;94.63;96759.13;5058822;28;20633;-85
2021/12/09 00:21:23;;;;;;;10.80;7.30;;;;;;;6.23;94.17;96764.31;5064635;28;20619;-85
2021/12/09 00:23:51;;;;;;;9.87;7.43;;;;;;;6.24;93.92;96765.13;5055228;28;20647;-85
2021/12/09 00:26:20;;;;;;;12.53;7.83;;;;;;;6.23;94.00;96758.31;5053513;28;21003;-85
2021/12/09 00:28:48;;;;;;;9.73;6.50;;;;;;;6.23;94.46;96769.50;5043314;28;20714;-85
2021/12/09 00:31:18;;;;;;;12.17;7.87;;;;;;;6.24;93.98;96780.66;5072738;28;20639;-85
2021/12/09 00:33:48;;;;;;;13.00;7.30;;;;;;;6.21;94.16;96775.75;5058695;28;21237;-85
2021/12/09 00:36:26;;;;;;;9.67;6.63;;;;;;;6.20;93.86;96769.72;5062075;28;20639;-85
2021/12/09 00:38:55;;;;;;;10.23;6.90;;;;;;;6.20;94.46;96774.91;5059419;28;20659;-85
2021/12/09 00:41:23;;;;;;;10.43;7.07;;;;;;;6.20;94.50;96780.06;5075886;28;20640;-85
2021/12/09 00:43:52;;;;;;;11.37;8.80;;;;;;;6.20;94.19;96777.47;5058432;28;20637;-85
2021/12/09 00:46:20;;;;;;;11.10;8.53;;;;;;;6.18;94.18;96788.91;5043892;28;21447;-85
2021/12/09 00:48:50;;;;;;;10.00;7.53;;;;;;;6.14;94.68;96784.88;5042389;28;20634;-85
2021/12/09 00:51:18;;;;;;;10.60;8.07;;;;;;;6.14;94.62;96785.69;5045471;28;20623;-85
2021/12/09 00:53:47;;;;;;;10.63;7.47;;;;;;;6.17;94.51;96780.28;5061068;28;20651;-85
2021/12/09 00:56:16;;;;;;;11.77;7.70;;;;;;;6.19;94.73;96793.97;5057099;28;20640;-85
2021/12/09 00:58:44;;;;;;;11.27;8.27;;;;;;;6.22;94.57;96782.53;5057727;28;20722;-85
2021/12/09 01:01:13;;;;;;;14.83;8.90;;;;;;;6.23;95.27;96786.78;5057574;28;20756;-85
2021/12/09 01:03:42;;;;;;;12.33;8.57;;;;;;;6.24;95.01;96791.00;5058982;28;20630;-85
2021/12/09 01:06:12;;;;;;;12.23;8.40;;;;;;;6.23;95.36;96789.38;5054146;28;20700;-85
2021/12/09 01:08:42;;;;;;;13.70;10.10;;;;;;;6.23;94.56;96797.97;5055484;28;20712;-85
2021/12/09 01:11:11;;;;;;;15.63;9.97;;;;;;;6.23;94.63;96790.19;5054217;28;21245;-85
2021/12/09 01:13:40;;;;;;;15.30;10.30;;;;;;;6.24;94.92;96799.63;5057576;28;20689;-85
2021/12/09 01:16:08;;;;;;;16.50;11.70;;;;;;;6.25;95.35;96796.09;5076674;28;21258;-85
2021/12/09 01:18:37;;;;;;;21.83;13.90;;;;;;;6.28;95.42;96805.41;5045018;28;20641;-85
2021/12/09 01:21:06;;;;;;;16.00;12.10;;;;;;;6.29;95.17;96805.28;5060680;28;20657;-85
2021/12/09 01:23:36;;;;;;;15.70;13.13;;;;;;;6.31;95.13;96808.59;5042015;28;20628;-85
2021/12/09 01:26:06;;;;;;;16.67;12.00;;;;;;;6.33;95.47;96811.06;5058381;28;21167;-85
2021/12/09 01:28:43;;;;;;;22.80;13.33;;;;;;;6.35;95.52;96815.22;5056264;28;20663;-85
2021/12/09 01:31:11;;;;;;;17.77;12.77;;;;;;;6.34;95.39;96812.72;5041017;28;20635;-85
2021/12/09 01:33:40;;;;;;;20.03;11.17;;;;;;;6.33;95.48;96811.91;5060002;28;20679;-85
2021/12/09 01:36:08;;;;;;;14.63;9.73;;;;;;;6.30;94.98;96811.28;5057012;28;20642;-85
2021/12/09 01:38:37;;;;;;;15.10;9.20;;;;;;;6.30;95.23;96812.13;5056615;28;20624;-85
2021/12/09 01:41:06;;;;;;;13.60;8.90;;;;;;;6.28;95.09;96815.75;5072162;28;20717;-85
2021/12/09 01:43:34;;;;;;;10.20;7.60;;;;;;;6.28;94.57;96813.16;5049419;28;20992;-85
2021/12/09 01:46:05;;;;;;;12.70;7.10;;;;;;;6.29;94.70;96822.59;5036690;28;20691;-85
2021/12/09 01:48:33;;;;;;;11.47;7.17;;;;;;;6.30;95.04;96816.47;5078710;28;20629;-85
2021/12/09 01:51:02;;;;;;;13.13;7.53;;;;;;;6.29;94.82;96813.06;5060265;28;20652;-85
2021/12/09 01:53:31;;;;;;;9.80;7.27;;;;;;;6.27;94.93;96817.53;5064598;28;20626;-85
2021/12/09 01:56:01;;;;;;;13.30;7.97;;;;;;;6.30;94.88;96824.22;5063137;28;20638;-85
2021/12/09 01:58:30;;;;;;;14.67;7.53;;;;;;;6.29;94.57;96813.06;5065333;28;20645;-85
2021/12/09 02:00:58;;;;;;;12.67;8.10;;;;;;;6.28;94.84;96806.22;5064962;28;21015;-85
2021/12/09 02:03:27;;;;;;;11.07;8.40;;;;;;;6.29;94.42;96800.13;5046226;28;20650;-85
2021/12/09 02:05:56;;;;;;;11.43;7.03;;;;;;;6.29;94.86;96800.13;5059165;28;20708;-85
2021/12/09 02:08:24;;;;;;;10.07;6.17;;;;;;;6.29;94.42;96797.53;5092695;28;20635;-85
2021/12/09 02:10:53;;;;;;;12.93;6.63;;;;;;;6.29;94.35;96802.69;5048814;28;20636;-85
2021/12/09 02:13:22;;;;;;;10.80;6.87;;;;;;;6.29;94.48;96814.84;5090523;28;20783;-84
2021/12/09 02:15:52;;;;;;;9.80;6.00;;;;;;;6.29;94.67;96818.22;5055025;28;20632;-85
2021/12/09 02:18:21;;;;;;;9.33;6.43;;;;;;;6.30;94.28;96819.03;5062552;28;20635;-85
2021/12/09 02:21:07;;;;;;;9.40;6.00;;;;;;;6.32;94.74;96824.97;5064094;28;20664;-85
2021/12/09 02:23:37;;;;;;;8.33;5.60;;;;;;;6.34;94.16;96841.19;5063288;28;20635;-85
2021/12/09 02:26:11;;;;;;;10.80;6.07;;;;;;;6.33;94.09;96847.31;5044677;28;20635;-85
2021/12/09 02:28:40;;;;;;;7.90;5.00;;;;;;;6.32;94.33;96837.91;5063032;28;20754;-85
2021/12/09 02:31:09;;;;;;;10.03;5.10;;;;;;;6.31;94.14;96852.59;5056310;28;21010;-85
2021/12/09 02:33:37;;;;;;;7.80;5.00;;;;;;;6.31;94.12;96860.34;5073459;28;20734;-85
2021/12/09 02:36:06;;;;;;;8.27;4.50;;;;;;;6.33;94.15;96862.84;5049262;28;20639;-85
2021/12/09 02:38:42;;;;;;;6.80;4.40;;;;;;;6.33;93.83;96849.91;5061452;28;20620;-85
2021/12/09 02:41:15;;;;;;;9.60;5.50;;;;;;;6.35;94.18;96855.81;5059618;28;20746;-85
2021/12/09 02:43:44;;;;;;;7.07;4.63;;;;;;;6.34;93.77;96869.69;5064564;28;20637;-85
2021/12/09 02:46:13;;;;;;;10.07;4.80;;;;;;;6.35;94.33;96873.94;5060916;28;21522;-85
2021/12/09 02:48:41;;;;;;;8.33;4.60;;;;;;;6.36;94.24;96868.66;5062854;28;20636;-85
2021/12/09 02:51:10;;;;;;;9.00;4.60;;;;;;;6.35;94.37;96858.41;5062112;28;20628;-85
2021/12/09 02:53:40;;;;;;;7.07;4.87;;;;;;;6.35;94.31;96861.81;5062163;28;20670;-85
2021/12/09 02:56:08;;;;;;;11.93;5.00;;;;;;;6.34;94.66;96857.56;5059297;28;20620;-85
2021/12/09 02:58:36;;;;;;;13.20;6.10;;;;;;;6.34;94.42;96854.97;5064604;28;21198;-85
2021/12/09 03:01:13;;;;;;;12.27;6.17;;;;;;;6.32;94.83;96851.66;5041566;28;20660;-85
2021/12/09 03:03:49;;;;;;;11.10;6.80;;;;;;;6.31;94.68;96855.19;5063585;28;20646;-85
2021/12/09 03:06:18;;;;;;;17.00;7.60;;;;;;;6.31;95.06;96852.59;5061306;28;21278;-85
2021/12/09 03:08:48;;;;;;;9.47;6.90;;;;;;;6.32;94.56;96850.84;5046963;28;20652;-85
2021/12/09 03:11:20;;;;;;;11.50;7.60;;;;;;;6.31;94.78;96859.53;5081621;28;20623;-85
2021/12/09 03:13:50;;;;;;;10.67;7.57;;;;;;;6.32;94.91;96861.19;5062291;28;20644;-85
2021/12/09 03:16:22;;;;;;;10.73;7.67;;;;;;;6.33;95.03;96861.09;5061291;28;20967;-85
2021/12/09 03:18:52;;;;;;;14.10;8.57;;;;;;;6.33;94.70;96860.25;5055345;28;20651;-85
2021/12/09 03:21:22;;;;;;;14.90;9.30;;;;;;;6.33;94.41;96862.84;5059205;28;20683;-85
2021/12/09 03:23:52;;;;;;;11.47;7.80;;;;;;;6.33;94.67;96863.69;5033271;28;20639;-85
2021/12/09 03:26:26;;;;;;;14.40;8.77;;;;;;;6.33;94.94;96868.88;5043531;28;20640;-85
2021/12/09 03:28:55;;;;;;;22.77;8.90;;;;;;;6.32;94.70;96868.97;5079605;28;20635;-85
2021/12/09 03:31:23;;;;;;;15.07;9.60;;;;;;;6.30;94.99;96869.09;5040720;28;20649;-85
2021/12/09 03:33:52;;;;;;;16.63;10.50;;;;;;;6.28;95.19;96868.34;5062321;28;20753;-85
2021/12/09 03:36:20;;;;;;;16.97;10.90;;;;;;;6.28;95.04;96865.75;5046712;28;20651;-84
2021/12/09 03:38:48;;;;;;;17.40;9.27;;;;;;;6.29;95.17;96866.59;5043716;28;20628;-85
2021/12/09 03:41:17;;;;;;;14.77;10.80;;;;;;;6.28;94.67;96870.13;5042350;28;20644;-85
2021/12/09 03:43:45;;;;;;;19.43;11.27;;;;;;;6.28;95.39;96867.53;5060577;28;21311;-85
2021/12/09 03:46:14;;;;;;;22.17;11.37;;;;;;;6.29;95.25;96869.19;5056957;28;20653;-85
2021/12/09 03:48:42;;;;;;;17.50;10.50;;;;;;;6.29;94.78;96871.78;5060935;28;20742;-85
2021/12/09 03:51:11;;;;;;;18.70;10.27;;;;;;;6.29;94.81;96871.78;5045019;28;20631;-85
2021/12/09 03:53:39;;;;;;;16.33;11.10;;;;;;;6.29;94.90;96876.94;5044262;28;20628;-85
2021/12/09 03:56:07;;;;;;;18.97;11.50;;;;;;;6.26;95.03;96874.56;5061069;28;20737;-85
2021/12/09 03:58:37;;;;;;;19.80;11.10;;;;;;;6.27;94.51;96873.63;5037206;28;21423;-85
2021/12/09 04:01:05;;;;;;;18.83;11.83;;;;;;;6.25;94.92;96876.31;5059260;28;21314;-85
2021/12/09 04:03:34;;;;;;;13.97;10.50;;;;;;;6.22;95.07;96876.56;5046743;28;20635;-85
2021/12/09 04:06:05;;;;;;;23.07;11.57;;;;;;;6.22;94.72;96889.50;5055198;28;20656;-85
2021/12/09 04:08:33;;;;;;;17.67;10.83;;;;;;;6.25;95.00;96889.25;5041044;28;20651;-85
2021/12/09 04:11:02;;;;;;;16.43;11.00;;;;;;;6.23;95.01;96890.31;5055555;28;20647;-85
2021/12/09 04:13:32;;;;;;;17.43;11.07;;;;;;;6.23;94.33;96887.75;5058745;28;21089;-85
2021/12/09 04:16:02;;;;;;;19.53;11.20;;;;;;;6.21;94.66;96887.03;5058881;28;20634;-85
2021/12/09 04:18:30;;;;;;;16.33;9.20;;;;;;;6.21;94.89;96893.03;5058887;28;20642;-85
2021/12/09 04:20:58;;;;;;;17.27;11.00;;;;;;;6.19;95.00;96902.66;5059634;28;20656;-85
2021/12/09 04:23:26;;;;;;;15.17;10.20;;;;;;;6.14;94.66;96907.31;5059424;28;20721;-85
2021/12/09 04:25:55;;;;;;;15.27;10.17;;;;;;;6.10;94.60;96905.91;5058446;28;20635;-85
2021/12/09 04:28:23;;;;;;;13.63;9.30;;;;;;;6.12;94.21;96916.97;5052955;28;21261;-85
2021/12/09 04:30:54;;;;;;;12.30;9.13;;;;;;;6.14;94.37;96919.44;5042750;28;20957;-85
2021/12/09 04:33:24;;;;;;;16.10;9.90;;;;;;;6.14;94.52;96914.25;5050313;28;20649;-85
2021/12/09 04:35:52;;;;;;;20.87;9.10;;;;;;;6.15;94.26;96916.75;5060376;28;20643;-85
2021/12/09 04:38:20;;;;;;;19.80;11.83;;;;;;;6.16;94.36;96921.00;5063169;28;21190;-85
2021/12/09 04:40:49;;;;;;;16.07;8.50;;;;;;;6.18;94.26;96916.53;5061426;28;20647;-85
2021/12/09 04:43:17;;;;;;;15.77;9.30;;;;;;;6.21;94.36;96910.31;5057197;28;20644;-85
2021/12/09 04:45:46;;;;;;;12.97;9.17;;;;;;;6.24;94.56;96916.09;5040954;28;20628;-85
2021/12/09 04:48:14;;;;;;;14.63;9.23;;;;;;;6.27;94.76;96926.25;5063222;28;20653;-85
2021/12/09 04:50:44;;;;;;;15.00;9.77;;;;;;;6.31;94.34;96932.84;5044130;28;20679;-85
2021/12/09 04:53:12;;;;;;;13.87;10.17;;;;;;;6.32;94.30;96939.69;5061233;28;20628;-85
2021/12/09 04:55:40;;;;;;;16.93;10.50;;;;;;;6.33;94.60;96940.50;5054015;28;20624;-85
2021/12/09 04:58:09;;;;;;;15.60;11.40;;;;;;;6.32;93.95;96944.03;5043534;28;21078;-85
2021/12/09 05:00:38;;;;;;;18.87;10.27;;;;;;;6.32;93.71;96954.41;5076879;28;20631;-85
2021/12/09 05:03:09;;;;;;;16.60;10.57;;;;;;;6.33;94.69;96954.28;5058471;28;21101;-85
2021/12/09 05:05:40;;;;;;;16.50;10.80;;;;;;;6.34;94.54;96968.88;5056457;28;20650;-85
2021/12/09 05:08:12;;;;;;;19.30;10.97;;;;;;;6.34;93.46;96963.69;5061034;28;20631;-85
2021/12/09 05:10:55;;;;;;;15.93;10.17;;;;;;;6.34;94.33;96968.88;5060478;28;20792;-85
2021/12/09 05:13:35;;;;;;;13.80;9.23;;;;;;;6.36;93.22;96973.94;5061273;28;21456;-85
2021/12/09 05:16:04;;;;;;;15.90;9.20;;;;;;;6.35;93.17;96985.25;5063731;28;20731;-85
2021/12/09 05:18:35;;;;;;;13.47;9.40;;;;;;;6.33;93.07;96980.19;5047586;28;20624;-85
2021/12/09 05:21:05;;;;;;;19.03;10.00;;;;;;;6.32;92.95;96986.28;5080102;28;20623;-85
2021/12/09 05:23:35;;;;;;;15.47;8.90;;;;;;;6.30;93.67;96984.72;5077616;28;20679;-85
2021/12/09 05:26:04;;;;;;;22.10;9.33;;;;;;;6.28;93.48;96978.81;5065348;28;20643;-85
2021/12/09 05:28:36;;;;;;;15.83;8.90;;;;;;;6.29;93.12;96996.03;5045176;28;20726;-85
2021/12/09 05:33:52;;;;;;;13.40;8.60;;;;;;;6.24;92.94;97004.09;5060854;28;21391;-85
2021/12/09 05:36:20;;;;;;;13.83;8.60;;;;;;;6.21;93.10;97009.50;5064336;28;20623;-85
2021/12/09 05:38:50;;;;;;;18.07;8.47;;;;;;;6.17;93.01;97010.63;5061367;28;20637;-85
2021/12/09 05:41:18;;;;;;;14.13;8.57;;;;;;;6.17;92.71;97020.97;5064168;28;21190;-85
2021/12/09 05:43:46;;;;;;;12.90;8.43;;;;;;;6.15;93.21;97032.38;5064151;28;22064;-85
2021/12/09 05:46:14;;;;;;;14.63;8.30;;;;;;;6.16;93.03;97028.84;5065510;28;20635;-85
2021/12/09 05:48:43;;;;;;;14.07;9.20;;;;;;;6.14;93.00;97031.53;5058922;28;20639;-85
2021/12/09 05:51:11;;;;;;;12.50;8.00;;;;;;;6.10;92.69;97032.69;5073578;28;20682;-85
2021/12/09 05:53:39;;;;;;;16.13;7.97;;;;;;;6.08;92.61;97016.44;5040632;28;20623;-85
2021/12/09 05:56:09;;;;;;;13.33;7.97;;;;;;;6.09;92.45;97020.69;5063030;28;20639;-84
2021/12/09 05:58:37;;;;;;;12.20;7.93;;;;;;;6.11;92.51;97028.34;5048470;28;20655;-84
2021/12/09 06:01:06;;;;;;;12.73;8.10;;;;;;;6.12;92.69;97033.41;5061565;28;20624;-85
2021/12/09 06:03:35;;;;;;;12.73;7.40;;;;;;;6.12;92.87;97030.81;5047811;28;20735;-84
2021/12/09 06:06:07;;;;;;;15.17;7.70;;;;;;;6.11;92.86;97033.50;5046894;28;21242;-84
2021/12/09 06:08:38;;;;;;;12.40;7.80;;;;;;;6.09;92.20;97043.16;5048245;28;20631;-84
2021/12/09 06:11:11;;;;;;;10.93;7.30;;;;;;;6.08;92.42;97043.25;5044218;28;20624;-85
2021/12/09 06:13:40;;;;;;;15.27;8.10;;;;;;;6.07;92.91;97051.94;5064727;28;21174;-86
2021/12/09 06:16:09;;;;;;;20.20;7.63;;;;;;;6.06;91.92;97050.28;5080887;28;20646;-86
2021/12/09 06:18:37;;;;;;;11.80;7.40;;;;;;;6.04;92.81;97044.38;5064977;28;20689;-85
2021/12/09 06:21:06;;;;;;;12.73;7.20;;;;;;;6.06;92.18;97045.09;5064537;28;20738;-85
2021/12/09 06:23:36;;;;;;;13.07;7.67;;;;;;;6.07;92.26;97044.19;5049888;28;20784;-87
2021/12/09 06:26:05;;;;;;;12.93;7.90;;;;;;;6.04;92.42;97045.19;5035335;28;20735;-84
2021/12/09 06:28:35;;;;;;;10.80;6.80;;;;;;;6.04;92.56;97046.97;5040347;28;21176;-84
2021/12/09 06:31:04;;;;;;;12.30;7.77;;;;;;;6.02;92.40;97054.00;5063693;28;20675;-85
2021/12/09 06:33:32;;;;;;;11.83;7.70;;;;;;;5.98;92.15;97044.78;5046471;28;20734;-85
2021/12/09 06:36:01;;;;;;;10.27;6.90;;;;;;;5.99;92.22;97059.41;5072164;28;20628;-85
2021/12/09 06:38:29;;;;;;;12.90;7.07;;;;;;;5.96;92.09;97052.66;5064797;28;21205;-85
2021/12/09 06:40:57;;;;;;;17.37;8.63;;;;;;;5.96;92.21;97036.31;5062848;28;20631;-85
2021/12/09 06:43:28;;;;;;;13.07;6.77;;;;;;;5.98;92.13;97037.03;5065029;28;20670;-85
2021/12/09 06:45:58;;;;;;;13.30;7.83;;;;;;;5.96;92.36;97036.31;5064838;28;20643;-85
2021/12/09 06:48:26;;;;;;;12.37;7.07;;;;;;;5.92;91.88;97040.84;5059458;28;20638;-85
2021/12/09 06:50:55;;;;;;;12.70;7.57;;;;;;;5.92;92.32;97037.44;5062255;28;20638;-85
2021/12/09 06:53:23;;;;;;;9.77;6.87;;;;;;;5.90;92.39;97036.72;5075595;28;21244;-86
2021/12/09 06:55:51;;;;;;;12.93;6.30;;;;;;;5.89;92.22;97035.88;5044465;28;20616;-84
2021/12/09 06:58:21;;;;;;;11.90;7.23;;;;;;;5.89;92.17;97035.06;5047447;28;20743;-84
2021/12/09 07:00:49;;;;;;;12.03;6.27;;;;;;;5.82;91.92;97034.66;5092318;28;20716;-84
2021/12/09 07:03:21;;;;;;;12.90;6.67;;;;;;;5.80;91.92;97033.94;5081274;28;20793;-86
2021/12/09 07:05:50;;;;;;;11.87;6.83;;;;;;;5.79;91.87;97031.44;5075130;28;21311;-85
2021/12/09 07:08:19;;;;;;;11.13;6.17;;;;;;;5.78;92.33;97051.28;5048467;28;20642;-83
2021/12/09 07:10:48;;;;;;;10.87;6.63;;;;;;;5.79;92.36;97052.13;5062869;28;21187;-85
2021/12/09 07:13:16;;;;;;;11.03;6.23;;;;;;;5.80;92.40;97053.78;5061409;28;20639;-85
2021/12/09 07:15:44;;;;;;;9.17;7.03;;;;;;;5.83;92.14;97059.59;5059855;28;20635;-85
2021/12/09 07:18:13;;;;;;;12.20;6.17;;;;;;;5.82;92.24;97057.09;5066083;28;20637;-85
2021/12/09 07:20:42;;;;;;;11.63;6.83;;;;;;;5.82;92.09;97057.94;5047923;28;20641;-83
2021/12/09 07:23:10;;;;;;;12.00;6.67;;;;;;;5.81;91.37;97061.44;5048660;28;20662;-84
2021/12/09 07:25:39;;;;;;;14.87;7.17;;;;;;;5.81;91.70;97066.59;5061060;28;20727;-85
2021/12/09 07:28:07;;;;;;;10.93;6.70;;;;;;;5.80;92.06;97077.06;5059126;28;21194;-84
2021/12/09 07:30:35;;;;;;;8.90;6.57;;;;;;;5.81;91.77;97076.13;5048756;28;20677;-84
2021/12/09 07:33:04;;;;;;;10.00;6.47;;;;;;;5.80;91.54;97071.88;5047825;28;20648;-84
2021/12/09 07:35:32;;;;;;;15.83;6.60;;;;;;;5.77;91.63;97079.84;5079318;28;21164;-84
2021/12/09 07:38:03;;;;;;;11.13;6.37;;;;;;;5.76;91.67;97078.19;5053387;28;20991;-85
2021/12/09 07:40:33;;;;;;;11.30;6.57;;;;;;;5.78;91.80;97086.69;5041661;28;20631;-85
2021/12/09 07:43:01;;;;;;;12.63;6.73;;;;;;;5.78;91.21;97078.91;5062321;28;21248;-84
2021/12/09 07:45:30;;;;;;;10.27;6.40;;;;;;;5.76;91.43;97073.84;5060392;28;21470;-86
2021/12/09 07:47:59;;;;;;;8.83;6.37;;;;;;;5.79;91.79;97078.00;5062388;28;20989;-86
2021/12/09 07:50:31;;;;;;;11.57;6.90;;;;;;;5.79;92.07;97081.41;5061527;28;20651;-86
2021/12/09 07:53:03;;;;;;;10.70;6.30;;;;;;;5.80;91.70;97088.25;5049963;28;20719;-86
2021/12/09 07:55:31;;;;;;;13.10;6.67;;;;;;;5.82;91.54;97088.16;5051092;28;20639;-86
2021/12/09 07:58:01;;;;;;;10.80;6.87;;;;;;;5.87;91.93;97091.25;5059739;28;20645;-86
2021/12/09 08:00:33;;;;;;;8.40;7.00;;;;;;;5.87;92.17;97099.00;5059034;28;21185;-86
2021/12/09 08:03:04;;;;;;;12.97;6.47;;;;;;;5.89;91.89;97092.78;5067742;28;20701;-85
2021/12/09 08:05:36;;;;;;;12.47;7.50;;;;;;;5.92;91.65;97099.53;5061974;28;20625;-86
2021/12/09 08:08:08;;;;;;;8.57;6.50;;;;;;;5.91;91.78;97093.53;5066591;28;20620;-86
2021/12/09 08:10:37;;;;;;;11.07;7.13;;;;;;;5.96;91.54;97096.63;5045571;28;21162;-86
2021/12/09 08:13:07;;;;;;;11.83;6.33;;;;;;;5.99;91.77;97096.44;5045504;28;20632;-85
2021/12/09 08:15:45;;;;;;;13.17;7.90;;;;;;;5.99;91.40;97105.97;5064331;28;20643;-85
2021/12/09 08:18:27;;;;;;;9.10;6.33;;;;;;;5.98;91.26;97097.34;5077412;28;20724;-85
2021/12/09 08:20:57;;;;;;;12.90;7.47;;;;;;;6.04;91.31;97109.06;5061945;28;20631;-85
2021/12/09 08:23:27;;;;;;;14.03;7.03;;;;;;;6.01;91.11;97109.28;5058444;28;20673;-85
2021/12/09 08:25:58;;;;;;;11.30;7.90;;;;;;;6.02;91.57;97106.59;5048077;28;20683;-85
2021/12/09 08:28:26;;;;;;;13.53;7.70;;;;;;;6.05;90.98;97105.56;5059139;28;20695;-85
2021/12/09 08:30:55;;;;;;;11.30;7.57;;;;;;;6.05;91.50;97106.38;5072399;28;20632;-85
2021/12/09 08:33:25;;;;;;;11.73;7.90;;;;;;;6.03;90.90;97105.66;5062636;28;20747;-85
2021/12/09 08:35:54;;;;;;;12.67;8.07;;;;;;;6.03;91.25;97110.00;5062922;28;20716;-85
2021/12/09 08:38:23;;;;;;;9.50;7.80;;;;;;;6.05;91.71;97108.16;5045101;28;20642;-84
2021/12/09 08:40:53;;;;;;;9.97;7.70;;;;;;;6.05;91.28;97106.38;5062252;28;20728;-85
2021/12/09 08:43:22;;;;;;;15.10;7.77;;;;;;;6.07;90.66;97114.84;5062124;28;20624;-86
2021/12/09 08:45:53;;;;;;;13.73;8.20;;;;;;;6.06;90.74;97110.63;5059352;28;20621;-86
2021/12/09 08:48:22;;;;;;;11.23;7.90;;;;;;;6.11;90.88;97111.16;5044104;28;20640;-86
2021/12/09 08:50:50;;;;;;;14.90;7.83;;;;;;;6.14;91.68;97124.69;5064667;28;20643;-86
2021/12/09 08:53:22;;;;;;;11.70;8.13;;;;;;;6.14;91.37;97121.31;5062711;28;20659;-86
2021/12/09 08:55:50;;;;;;;13.60;8.33;;;;;;;6.18;91.50;97130.53;5063273;28;20988;-85
2021/12/09 08:58:20;;;;;;;13.40;8.80;;;;;;;6.20;91.35;97129.47;5056378;28;21225;-86
2021/12/09 09:00:51;;;;;;;16.20;10.80;;;;;;;6.26;91.33;97154.13;5060914;28;20628;-89
2021/12/09 09:03:20;;;;;;;12.43;8.30;;;;;;;6.29;91.98;97144.41;5049227;28;20635;-89
2021/12/09 09:05:48;;;;;;;16.60;9.00;;;;;;;6.32;91.34;97148.56;5062619;28;20653;-89
2021/12/09 09:08:17;;;;;;;11.03;8.33;;;;;;;6.35;91.55;97150.94;5063504;28;20638;-89
2021/12/09 09:10:49;;;;;;;12.83;8.50;;;;;;;6.33;91.58;97153.63;5058995;28;20676;-87
2021/12/09 09:13:17;;;;;;;11.17;8.60;;;;;;;6.36;90.97;97150.84;5064269;28;20645;-87
2021/12/09 09:15:48;;;;;;;18.87;10.30;;;;;;;6.37;90.84;97155.06;5059884;28;20693;-90
2021/12/09 09:18:17;;;;;;;12.33;8.27;;;;;;;6.35;91.08;97156.94;5059974;28;20636;-88
2021/12/09 09:20:46;;;;;;;15.93;10.10;;;;;;;6.35;91.35;97154.34;5045567;28;20636;-89
2021/12/09 09:23:15;;;;;;;14.67;9.80;;;;;;;6.35;90.67;97159.53;5061521;28;21215;-88
2021/12/09 09:25:44;;;;;;;16.10;10.10;;;;;;;6.34;91.06;97165.63;5046148;28;21028;-88
2021/12/09 09:28:13;;;;;;;18.47;10.07;;;;;;;6.34;90.15;97164.81;5060987;28;21427;-88
2021/12/09 09:30:48;;;;;;;14.63;10.27;;;;;;;6.34;90.72;97167.38;5066558;28;20636;-88
2021/12/09 09:33:18;;;;;;;15.60;11.10;;;;;;;6.40;91.42;97165.22;5047539;28;20692;-88
2021/12/09 09:35:47;;;;;;;15.20;12.20;;;;;;;6.43;91.00;97159.84;5046781;28;20644;-88
2021/12/09 09:38:16;;;;;;;17.57;10.90;;;;;;;6.45;90.60;97168.34;5066806;28;20623;-89
2021/12/09 09:40:49;;;;;;;16.20;11.90;;;;;;;6.42;91.00;97163.38;5065188;28;20627;-88
2021/12/09 09:43:29;;;;;;;15.70;11.03;;;;;;;6.43;91.41;97167.59;5059844;28;20712;-89
2021/12/09 09:46:04;;;;;;;21.10;17.27;;;;;;;6.42;91.40;97167.69;5059200;28;21797;-88
2021/12/09 09:48:34;;;;;;;16.50;12.17;;;;;;;6.42;90.95;97165.09;5058036;28;21127;-88
2021/12/09 09:51:03;;;;;;;21.60;11.53;;;;;;;6.45;91.47;97178.69;5079741;28;20684;-89
2021/12/09 09:53:32;;;;;;;23.93;19.47;;;;;;;6.48;91.38;97173.31;5048962;28;20642;-88
2021/12/09 09:56:00;;;;;;;21.83;16.00;;;;;;;6.49;91.12;97174.97;5061961;28;20647;-88
2021/12/09 09:58:29;;;;;;;25.63;20.53;;;;;;;6.47;91.12;97176.84;5059065;28;20656;-88
2021/12/09 10:00:57;;;;;;;21.20;13.37;;;;;;;6.47;91.24;97179.41;5060778;28;20636;-88
2021/12/09 10:03:29;;;;;;;19.47;13.73;;;;;;;6.48;90.87;97183.69;5066281;28;20738;-89
2021/12/09 10:06:02;;;;;;;15.50;10.80;;;;;;;6.47;91.20;97189.78;5065744;28;20676;-88
2021/12/09 10:08:32;;;;;;;32.17;16.73;;;;;;;6.52;91.35;97184.28;5062803;28;20639;-88
2021/12/09 10:11:01;;;;;;;27.97;20.67;;;;;;;6.51;91.18;97190.41;5058134;28;20660;-88
2021/12/09 10:13:32;;;;;;;26.07;17.40;;;;;;;6.44;90.56;97189.16;5048449;28;20981;-89
2021/12/09 10:16:04;;;;;;;15.23;11.03;;;;;;;6.45;91.57;97189.06;5065538;28;20651;-88
2021/12/09 10:18:35;;;;;;;15.80;11.30;;;;;;;6.45;91.44;97191.66;5078980;28;20767;-88
2021/12/09 10:21:05;;;;;;;25.57;18.20;;;;;;;6.48;91.75;97193.19;5064887;28;20634;-88
2021/12/09 10:23:36;;;;;;;24.13;17.90;;;;;;;6.49;92.15;97187.09;5077510;28;20667;-88
2021/12/09 10:26:13;;;;;;;16.17;11.40;;;;;;;6.52;90.96;97187.69;5061918;28;21277;-88
2021/12/09 10:28:46;;;;;;;15.63;12.00;;;;;;;6.55;91.52;97184.91;5047360;28;20706;-89
2021/12/09 10:31:17;;;;;;;18.47;12.13;;;;;;;6.57;91.75;97194.25;5063990;28;20620;-87
2021/12/09 10:34:00;;;;;;;25.90;16.73;;;;;;;6.56;90.83;97196.13;5059315;28;20625;-86
2021/12/09 10:36:48;;;;;;;25.20;12.67;;;;;;;6.57;92.09;97194.25;5065699;28;20724;-88
2021/12/09 10:39:21;;;;;;;20.00;12.87;;;;;;;6.60;91.01;97193.22;5095280;28;20631;-85
2021/12/09 10:41:49;;;;;;;27.00;18.70;;;;;;;6.61;91.24;97195.72;5058261;28;20640;-86
2021/12/09 10:44:20;;;;;;;20.77;13.30;;;;;;;6.65;91.61;97197.13;5047381;28;20735;-86
2021/12/09 10:46:53;;;;;;;18.33;11.77;;;;;;;6.64;90.93;97195.47;5061832;28;20651;-86
2021/12/09 10:49:23;;;;;;;18.03;11.27;;;;;;;6.64;91.32;97185.09;5062691;28;20640;-86
2021/12/09 10:52:00;;;;;;;21.73;11.77;;;;;;;6.65;91.50;97183.38;5062285;28;20629;-87
2021/12/09 10:54:33;;;;;;;16.47;12.60;;;;;;;6.60;90.78;97182.84;5066133;28;20694;-87
2021/12/09 10:57:23;;;;;;;15.90;11.83;;;;;;;6.59;90.68;97182.00;5044579;28;20646;-87
2021/12/09 10:59:56;;;;;;;18.97;11.97;;;;;;;6.61;91.07;97174.13;5044475;28;20639;-87
2021/12/09 11:02:24;;;;;;;16.80;10.87;;;;;;;6.60;90.57;97177.69;5050832;28;21168;-87
2021/12/09 11:05:01;;;;;;;23.63;11.80;;;;;;;6.64;91.09;97166.97;5050428;28;20749;-87
2021/12/09 11:07:32;;;;;;;15.90;10.83;;;;;;;6.60;90.57;97165.53;5051902;28;20743;-87
2021/12/09 11:10:17;;;;;;;15.90;11.67;;;;;;;6.62;91.68;97175.81;5066363;28;20672;-87
2021/12/09 11:12:54;;;;;;;19.33;13.00;;;;;;;6.61;90.80;97169.81;5041587;28;20712;-87
2021/12/09 11:15:24;;;;;;;15.83;9.70;;;;;;;6.66;91.32;97175.50;5064575;28;20727;-87
2021/12/09 11:17:53;;;;;;;16.40;11.33;;;;;;;6.66;90.39;97170.31;5066204;28;20731;-87
2021/12/09 11:20:43;;;;;;;15.27;10.80;;;;;;;6.62;91.06;97160.25;5064830;28;20729;-87
2021/12/09 11:23:32;;;;;;;14.97;10.73;;;;;;;6.66;91.16;97165.13;5043295;28;20628;-87
2021/12/09 11:26:46;;;;;;;20.13;10.67;;;;;;;6.74;91.24;97154.25;5048641;28;20711;-87
2021/12/09 11:29:17;;;;;;;16.20;11.63;;;;;;;6.75;91.36;97150.72;5042904;28;20641;-86
2021/12/09 11:31:54;;;;;;;20.10;11.77;;;;;;;6.77;91.18;97147.09;5047540;28;20647;-87
2021/12/09 11:34:27;;;;;;;15.77;10.97;;;;;;;6.79;91.38;97141.81;5046383;28;21179;-86
2021/12/09 11:37:00;;;;;;;13.17;10.50;;;;;;;6.76;91.66;97142.84;5057617;28;20633;-87
2021/12/09 11:39:41;;;;;;;17.70;11.60;;;;;;;6.87;91.41;97140.34;5066918;28;20719;-87
2021/12/09 11:42:18;;;;;;;16.77;11.33;;;;;;;6.92;91.51;97142.63;5062713;28;20628;-86
2021/12/09 11:45:07;;;;;;;15.50;11.00;;;;;;;6.89;90.29;97141.06;5058538;28;21443;-86
2021/12/09 11:47:35;;;;;;;17.20;11.80;;;;;;;6.94;89.09;97140.75;5064848;28;20973;-86
2021/12/09 11:50:11;;;;;;;17.60;11.13;;;;;;;6.95;89.58;97142.41;5058658;28;20647;-86